Time;durP1;ratioP1;P1;durP2;ratioP2;P2;SDS_P1;SDS_P2;PMS_P1;PMS_P2;Temp;Humidity;BMP_temperature;BMP_pressure;BME280_temperature;BME280_humidity;BME280_pressure;Samples;Min_cycle;Max_cycle;Signal;HPM_P1;HPM_P2
2021/05/02 00:02:07;;;;;;;34.23;19.30;;;;;;;6.85;97.96;100188.91;4989774;28;20202;-72
2021/05/02 00:04:33;;;;;;;31.77;18.93;;;;;;;6.85;97.64;100201.03;4984013;28;20254;-72
2021/05/02 00:07:02;;;;;;;34.80;19.77;;;;;;;6.83;97.73;100194.13;4987029;28;20229;-72
2021/05/02 00:09:28;;;;;;;37.43;20.70;;;;;;;6.81;97.70;100190.72;4977596;28;20663;-72
2021/05/02 00:11:54;;;;;;;42.40;21.20;;;;;;;6.79;98.09;100184.69;4976651;28;20190;-72
2021/05/02 00:14:20;;;;;;;36.27;21.50;;;;;;;6.79;98.19;100184.69;4987696;28;20209;-71
2021/05/02 00:16:47;;;;;;;40.47;21.03;;;;;;;6.80;97.89;100178.63;4981419;28;20238;-72
2021/05/02 00:19:13;;;;;;;38.63;21.40;;;;;;;6.79;97.96;100176.09;4982605;28;20197;-73
2021/05/02 00:21:40;;;;;;;35.27;20.40;;;;;;;6.79;98.03;100184.69;4983419;28;20212;-72
2021/05/02 00:24:08;;;;;;;34.80;20.47;;;;;;;6.79;97.89;100183.84;4984112;28;20244;-72
2021/05/02 00:26:35;;;;;;;35.60;20.87;;;;;;;6.79;97.68;100183.84;4986372;28;20222;-73
2021/05/02 00:29:01;;;;;;;36.70;19.67;;;;;;;6.79;97.80;100183.84;4982687;28;20220;-72
2021/05/02 00:31:27;;;;;;;35.87;20.83;;;;;;;6.81;97.92;100184.69;4984533;28;20217;-73
2021/05/02 00:33:54;;;;;;;42.73;21.70;;;;;;;6.80;97.60;100194.16;4973034;28;20194;-72
2021/05/02 00:36:21;;;;;;;38.10;21.83;;;;;;;6.79;97.98;100191.63;4981427;28;20709;-72
2021/05/02 00:38:47;;;;;;;39.53;21.67;;;;;;;6.79;97.54;100187.28;4980121;28;20291;-71
2021/05/02 00:41:21;;;;;;;37.80;22.80;;;;;;;6.80;97.41;100186.38;4981392;28;20225;-73
2021/05/02 00:43:56;;;;;;;35.50;22.53;;;;;;;6.79;97.75;100183.84;4989727;28;20220;-72
2021/05/02 00:46:25;;;;;;;41.80;21.27;;;;;;;6.80;97.77;100176.03;4989187;28;20224;-73
2021/05/02 00:48:59;;;;;;;35.90;20.27;;;;;;;6.82;97.43;100173.41;4985999;28;20219;-72
2021/05/02 00:51:28;;;;;;;36.07;21.23;;;;;;;6.82;97.45;100165.63;4983819;28;20196;-73
2021/05/02 00:54:13;;;;;;;38.67;20.57;;;;;;;6.82;97.57;100165.63;4979626;28;20201;-72
2021/05/02 00:56:53;;;;;;;39.70;21.43;;;;;;;6.81;97.31;100162.19;4980223;28;20230;-72
2021/05/02 00:59:25;;;;;;;37.63;21.50;;;;;;;6.81;97.66;100154.44;4984593;28;20212;-71
2021/05/02 01:01:53;;;;;;;38.63;22.23;;;;;;;6.80;97.99;100147.53;4985403;28;20271;-73
2021/05/02 01:04:24;;;;;;;37.27;20.93;;;;;;;6.80;97.72;100138.91;4977439;28;20213;-71
2021/05/02 01:06:52;;;;;;;40.83;22.50;;;;;;;6.80;98.03;100154.44;4976573;28;20259;-73
2021/05/02 01:09:21;;;;;;;41.43;21.40;;;;;;;6.80;98.30;100159.63;4983872;28;20611;-73
2021/05/02 01:11:48;;;;;;;37.60;21.73;;;;;;;6.78;97.92;100161.41;4984818;28;20332;-73
2021/05/02 01:14:22;;;;;;;36.73;21.10;;;;;;;6.78;98.24;100157.06;4989001;28;20209;-72
2021/05/02 01:16:50;;;;;;;38.13;21.63;;;;;;;6.78;98.19;100164.84;4983469;28;20235;-73
2021/05/02 01:19:16;;;;;;;42.33;21.13;;;;;;;6.77;98.15;100170.03;4985137;28;20295;-72
2021/05/02 01:21:45;;;;;;;43.80;21.83;;;;;;;6.76;98.34;100176.13;4987823;28;20758;-72
2021/05/02 01:24:12;;;;;;;41.50;23.13;;;;;;;6.76;98.06;100176.13;4981301;28;20233;-72
2021/05/02 01:26:41;;;;;;;39.10;22.80;;;;;;;6.73;98.48;100160.63;4991951;28;20316;-71
2021/05/02 01:29:07;;;;;;;36.50;21.80;;;;;;;6.75;98.32;100161.44;4983844;28;20204;-72
2021/05/02 01:31:34;;;;;;;39.50;22.97;;;;;;;6.73;98.67;100160.63;4983505;28;20209;-72
2021/05/02 01:34:00;;;;;;;38.03;22.67;;;;;;;6.72;98.56;100157.19;4983583;28;20209;-73
2021/05/02 01:36:26;;;;;;;38.30;22.33;;;;;;;6.71;98.69;100158.06;4985777;28;20221;-73
2021/05/02 01:38:55;;;;;;;38.00;22.73;;;;;;;6.70;98.91;100147.72;4986503;28;20197;-73
2021/05/02 01:41:23;;;;;;;41.97;23.30;;;;;;;6.68;99.30;100146.91;4988051;28;20217;-72
2021/05/02 01:43:49;;;;;;;41.63;24.00;;;;;;;6.68;98.79;100150.34;4982448;28;20186;-72
2021/05/02 01:46:22;;;;;;;41.83;23.80;;;;;;;6.67;98.81;100148.66;4989904;28;20303;-72
2021/05/02 01:48:49;;;;;;;43.00;24.20;;;;;;;6.67;99.03;100143.47;4983308;28;20189;-73
2021/05/02 01:51:15;;;;;;;40.80;24.13;;;;;;;6.65;99.11;100142.63;4979601;28;20824;-72
2021/05/02 01:53:42;;;;;;;42.83;23.90;;;;;;;6.61;99.04;100128.88;4986130;28;20208;-71
2021/05/02 01:56:08;;;;;;;41.20;24.57;;;;;;;6.60;99.29;100140.13;4987969;28;20228;-72
2021/05/02 01:58:36;;;;;;;45.90;23.97;;;;;;;6.59;99.26;100133.22;4990195;28;20761;-72
2021/05/02 02:01:05;;;;;;;42.23;22.93;;;;;;;6.60;99.26;100113.38;4980884;28;20220;-71
2021/05/02 02:03:32;;;;;;;42.70;24.23;;;;;;;6.58;99.50;100103.03;4989988;28;20284;-73
2021/05/02 02:06:02;;;;;;;45.23;24.87;;;;;;;6.60;99.32;100113.38;4982405;28;20217;-73
2021/05/02 02:08:28;;;;;;;42.37;23.47;;;;;;;6.59;99.17;100116.81;4984357;28;20201;-72
2021/05/02 02:10:55;;;;;;;44.13;24.60;;;;;;;6.55;99.53;100097.91;4985190;28;20200;-73
2021/05/02 02:13:21;;;;;;;42.60;23.67;;;;;;;6.56;99.54;100104.81;4989158;28;20239;-73
2021/05/02 02:15:49;;;;;;;42.10;23.30;;;;;;;6.57;99.50;100101.31;4985266;28;20300;-73
2021/05/02 02:18:16;;;;;;;45.83;24.17;;;;;;;6.56;99.47;100096.16;4982062;28;20209;-71
2021/05/02 02:20:46;;;;;;;40.37;22.03;;;;;;;6.53;99.80;100089.31;4979214;28;20232;-71
2021/05/02 02:23:18;;;;;;;43.53;23.30;;;;;;;6.52;100.00;100095.34;4985798;28;20643;-73
2021/05/02 02:25:46;;;;;;;44.53;23.70;;;;;;;6.47;100.00;100096.31;4987192;28;20558;-73
2021/05/02 02:28:15;;;;;;;35.47;21.33;;;;;;;6.49;100.00;100082.47;4986432;28;20193;-72
2021/05/02 02:30:45;;;;;;;40.83;22.13;;;;;;;6.46;100.00;100092.88;4984976;28;20212;-71
2021/05/02 02:33:13;;;;;;;41.80;21.90;;;;;;;6.43;100.00;100093.78;4980884;28;20202;-71
2021/05/02 02:35:42;;;;;;;39.77;22.07;;;;;;;6.43;100.00;100091.19;4987148;28;20206;-71
2021/05/02 02:38:09;;;;;;;40.03;21.80;;;;;;;6.40;100.00;100083.50;4985719;28;20307;-73
2021/05/02 02:40:37;;;;;;;43.57;23.20;;;;;;;6.36;100.00;100094.78;4985096;28;20732;-71
2021/05/02 02:43:05;;;;;;;45.47;23.20;;;;;;;6.34;100.00;100093.09;4986591;28;20206;-72
2021/05/02 02:45:38;;;;;;;41.47;22.60;;;;;;;6.33;100.00;100092.25;4985608;28;20216;-72
2021/05/02 02:48:06;;;;;;;40.53;21.73;;;;;;;6.33;100.00;100093.97;4985609;28;20201;-73
2021/05/02 02:50:33;;;;;;;43.07;22.53;;;;;;;6.31;100.00;100091.41;4984391;28;20208;-74
2021/05/02 02:53:02;;;;;;;41.80;22.93;;;;;;;6.28;100.00;100095.78;4985029;28;20741;-72
2021/05/02 02:55:30;;;;;;;41.03;22.37;;;;;;;6.29;100.00;100102.69;4987139;28;20365;-72
2021/05/02 02:57:59;;;;;;;44.23;21.77;;;;;;;6.28;100.00;100108.72;4981249;28;20212;-72
2021/05/02 03:00:27;;;;;;;41.00;22.53;;;;;;;6.26;100.00;100095.81;4984502;28;20220;-71
2021/05/02 03:02:56;;;;;;;36.17;21.77;;;;;;;6.27;100.00;100094.09;4984223;28;20968;-72
2021/05/02 03:05:24;;;;;;;38.83;21.20;;;;;;;6.25;100.00;100097.53;4981752;28;20200;-72
2021/05/02 03:07:52;;;;;;;37.70;20.93;;;;;;;6.25;100.00;100094.97;4979541;28;20233;-72
2021/05/02 03:10:20;;;;;;;40.23;22.70;;;;;;;6.23;100.00;100096.72;4982965;28;20193;-72
2021/05/02 03:12:49;;;;;;;39.43;22.17;;;;;;;6.19;100.00;100100.25;4984700;28;20210;-71
2021/05/02 03:15:15;;;;;;;39.90;22.33;;;;;;;6.19;100.00;100097.66;4986134;28;20259;-72
2021/05/02 03:17:45;;;;;;;45.70;22.67;;;;;;;6.19;100.00;100097.66;4988313;28;20233;-71
2021/05/02 03:20:13;;;;;;;44.53;23.40;;;;;;;6.19;100.00;100094.19;4986073;28;20247;-72
2021/05/02 03:22:42;;;;;;;41.43;22.20;;;;;;;6.16;100.00;100096.88;4987374;28;20632;-73
2021/05/02 03:25:12;;;;;;;42.60;23.20;;;;;;;6.14;100.00;100093.41;4987744;28;20279;-70
2021/05/02 03:27:44;;;;;;;44.07;23.13;;;;;;;6.10;100.00;100089.19;4986656;28;20309;-74
2021/05/02 03:30:13;;;;;;;43.63;23.10;;;;;;;6.07;100.00;100083.19;4989818;28;20590;-74
2021/05/02 03:32:47;;;;;;;42.47;21.57;;;;;;;6.05;100.00;100086.66;4986719;28;20247;-73
2021/05/02 03:35:15;;;;;;;42.37;22.57;;;;;;;6.03;100.00;100078.06;4985045;28;20216;-73
2021/05/02 03:37:47;;;;;;;41.50;22.47;;;;;;;6.02;100.00;100076.38;4980642;28;20316;-71
2021/05/02 03:40:14;;;;;;;36.33;20.70;;;;;;;5.99;100.00;100077.25;4990596;28;20217;-73
2021/05/02 03:42:40;;;;;;;41.07;21.57;;;;;;;5.99;100.00;100068.66;4984001;28;20209;-73
2021/05/02 03:45:08;;;;;;;43.50;21.90;;;;;;;5.94;100.00;100068.69;4983324;28;20217;-71
2021/05/02 03:47:33;;;;;;;43.10;21.67;;;;;;;5.95;100.00;100073.00;4979971;28;20232;-69
2021/05/02 03:49:59;;;;;;;43.53;23.00;;;;;;;5.94;100.00;100075.59;4983239;28;20201;-73
2021/05/02 03:52:25;;;;;;;44.83;22.83;;;;;;;5.93;100.00;100076.47;4980338;28;20208;-71
2021/05/02 03:54:52;;;;;;;47.13;24.13;;;;;;;5.90;100.00;100064.44;4969299;28;20556;-71
2021/05/02 03:57:19;;;;;;;45.37;22.07;;;;;;;5.92;100.00;100064.44;4985813;28;20236;-71
2021/05/02 03:59:46;;;;;;;45.13;23.67;;;;;;;5.91;100.00;100065.28;4986415;28;20215;-72
2021/05/02 04:02:13;;;;;;;45.50;23.63;;;;;;;5.90;100.00;100061.00;4989530;28;20201;-69
2021/05/02 04:04:41;;;;;;;49.53;23.43;;;;;;;5.88;100.00;100063.63;4984542;28;20660;-72
2021/05/02 04:07:09;;;;;;;48.50;24.40;;;;;;;5.86;100.00;100055.88;4986345;28;20647;-71
2021/05/02 04:09:36;;;;;;;49.57;25.03;;;;;;;5.84;100.00;100052.47;4988429;28;20216;-72
2021/05/02 04:12:03;;;;;;;44.30;22.40;;;;;;;5.84;100.00;100057.66;4987356;28;20206;-72
2021/05/02 04:14:30;;;;;;;51.07;24.57;;;;;;;5.86;100.00;100048.13;4986989;28;20681;-71
2021/05/02 04:16:56;;;;;;;49.30;25.13;;;;;;;5.83;100.00;100055.91;4988145;28;20232;-74
2021/05/02 04:19:23;;;;;;;46.73;24.47;;;;;;;5.85;100.00;100066.25;4983966;28;20198;-71
2021/05/02 04:21:50;;;;;;;49.20;25.57;;;;;;;5.85;100.00;100058.50;4980970;28;20239;-72
2021/05/02 04:24:16;;;;;;;49.50;24.57;;;;;;;5.83;100.00;100063.69;4986069;28;20198;-74
2021/05/02 04:26:43;;;;;;;45.57;25.10;;;;;;;5.83;100.00;100052.50;4983521;28;20225;-73
2021/05/02 04:29:09;;;;;;;52.80;26.33;;;;;;;5.85;100.00;100059.34;4990093;28;20217;-72
2021/05/02 04:31:36;;;;;;;48.97;24.13;;;;;;;5.86;100.00;100060.22;4986846;28;20190;-73
2021/05/02 04:34:03;;;;;;;51.90;26.07;;;;;;;5.83;100.00;100070.59;4983687;28;20714;-73
2021/05/02 04:36:29;;;;;;;53.80;26.83;;;;;;;5.82;100.00;100067.16;4986318;28;20229;-72
2021/05/02 04:38:55;;;;;;;56.03;26.07;;;;;;;5.82;100.00;100072.34;4988214;28;20665;-73
2021/05/02 04:41:21;;;;;;;52.17;24.80;;;;;;;5.84;100.00;100065.41;4987316;28;20304;-73
2021/05/02 04:43:47;;;;;;;51.30;25.93;;;;;;;5.86;100.00;100070.56;4985243;28;20208;-73
2021/05/02 04:46:13;;;;;;;51.90;27.23;;;;;;;5.85;100.00;100076.59;4981069;28;20230;-73
2021/05/02 04:48:41;;;;;;;53.73;27.27;;;;;;;5.86;100.00;100075.72;4980336;28;20617;-73
2021/05/02 04:51:07;;;;;;;53.73;26.63;;;;;;;5.87;100.00;100080.00;4983644;28;20198;-73
2021/05/02 04:53:34;;;;;;;56.23;26.63;;;;;;;5.87;100.00;100085.19;4987685;28;20283;-73
2021/05/02 04:56:00;;;;;;;55.67;26.37;;;;;;;5.88;100.00;100090.34;4987568;28;20209;-74
2021/05/02 04:58:26;;;;;;;51.27;26.70;;;;;;;5.89;100.00;100093.78;4986299;28;20204;-74
2021/05/02 05:00:52;;;;;;;57.53;28.20;;;;;;;5.86;100.00;100086.94;4982919;28;20821;-73
2021/05/02 05:03:18;;;;;;;51.40;25.50;;;;;;;5.90;100.00;100092.06;4980939;28;20225;-74
2021/05/02 05:05:45;;;;;;;58.00;28.47;;;;;;;5.91;100.00;100089.47;4984325;28;20284;-74
2021/05/02 05:08:11;;;;;;;60.17;29.33;;;;;;;5.92;100.00;100092.88;4985278;28;20201;-74
2021/05/02 05:10:37;;;;;;;55.90;28.13;;;;;;;5.90;100.00;100103.25;4983857;28;20236;-73
2021/05/02 05:13:03;;;;;;;55.93;28.13;;;;;;;5.89;100.00;100106.72;4988841;28;20381;-73
2021/05/02 05:15:29;;;;;;;51.33;26.13;;;;;;;5.92;100.00;100103.25;4986959;28;20320;-73
2021/05/02 05:17:55;;;;;;;56.70;26.47;;;;;;;5.94;100.00;100107.50;4984683;28;20228;-74
2021/05/02 05:20:21;;;;;;;52.70;25.90;;;;;;;5.95;100.00;100108.38;4982712;28;20221;-74
2021/05/02 05:22:48;;;;;;;57.07;28.23;;;;;;;5.92;100.00;100111.00;4985211;28;20197;-74
2021/05/02 05:25:15;;;;;;;60.30;27.33;;;;;;;5.94;100.00;100109.25;4983458;28;20653;-75
2021/05/02 05:27:41;;;;;;;64.77;28.67;;;;;;;5.91;100.00;100104.97;4983856;28;20229;-72
2021/05/02 05:30:09;;;;;;;61.07;28.17;;;;;;;5.92;100.00;100108.41;4982838;28;20197;-73
2021/05/02 05:32:35;;;;;;;55.53;26.87;;;;;;;5.92;100.00;100109.25;4986703;28;20249;-73
2021/05/02 05:35:01;;;;;;;61.53;28.67;;;;;;;5.92;100.00;100122.19;4983529;28;20567;-73
2021/05/02 05:37:27;;;;;;;58.23;28.00;;;;;;;5.95;100.00;100121.31;4984400;28;20241;-73
2021/05/02 05:39:54;;;;;;;57.97;26.43;;;;;;;5.95;100.00;100121.31;4985804;28;20663;-72
2021/05/02 05:42:20;;;;;;;55.77;27.27;;;;;;;5.96;100.00;100118.75;4978874;28;20205;-72
2021/05/02 05:44:46;;;;;;;55.30;26.07;;;;;;;5.97;100.00;100122.19;4988133;28;20205;-73
2021/05/02 05:47:12;;;;;;;59.80;28.13;;;;;;;5.99;100.00;100130.75;4984910;28;20983;-73
2021/05/02 05:49:39;;;;;;;61.13;28.27;;;;;;;6.00;100.00;100124.72;4985406;28;20715;-72
2021/05/02 05:52:06;;;;;;;58.30;27.37;;;;;;;6.02;100.00;100128.97;4987159;28;20197;-74
2021/05/02 05:54:32;;;;;;;54.40;28.63;;;;;;;6.04;100.00;100141.91;4987611;28;20201;-72
2021/05/02 05:56:59;;;;;;;60.50;27.33;;;;;;;6.05;100.00;100135.84;4988487;28;20237;-74
2021/05/02 05:59:25;;;;;;;58.10;28.67;;;;;;;6.05;100.00;100146.19;4980608;28;20201;-74
2021/05/02 06:01:50;;;;;;;59.67;28.90;;;;;;;6.06;100.00;100145.31;4982390;28;20216;-73
2021/05/02 06:04:16;;;;;;;59.00;28.90;;;;;;;6.11;100.00;100145.25;4979912;28;20613;-73
2021/05/02 06:06:43;;;;;;;56.97;26.53;;;;;;;6.13;100.00;100154.69;4983057;28;20789;-72
2021/05/02 06:09:09;;;;;;;59.13;28.20;;;;;;;6.09;100.00;100153.03;4982672;28;20244;-72
2021/05/02 06:11:35;;;;;;;55.20;26.87;;;;;;;6.13;100.00;100159.03;4981296;28;20778;-72
2021/05/02 06:14:04;;;;;;;62.57;29.10;;;;;;;6.12;100.00;100150.41;4984670;28;20204;-74
2021/05/02 06:16:30;;;;;;;54.13;26.93;;;;;;;6.14;100.00;100150.38;4986162;28;20260;-74
2021/05/02 06:18:58;;;;;;;58.37;27.63;;;;;;;6.15;100.00;100160.69;4981838;28;20293;-74
2021/05/02 06:21:25;;;;;;;64.83;28.37;;;;;;;6.18;100.00;100155.47;4983367;28;20263;-74
2021/05/02 06:23:52;;;;;;;60.57;28.53;;;;;;;6.17;100.00;100158.09;4983719;28;20233;-73
2021/05/02 06:26:19;;;;;;;52.80;27.47;;;;;;;6.20;100.00;100161.50;4985503;28;20217;-74
2021/05/02 06:28:45;;;;;;;52.97;25.80;;;;;;;6.21;100.00;100162.38;4982949;28;20630;-74
2021/05/02 06:31:12;;;;;;;52.33;26.03;;;;;;;6.20;100.00;100165.81;4983567;28;20267;-74
2021/05/02 06:33:39;;;;;;;55.23;28.27;;;;;;;6.21;100.00;100164.94;4985004;28;20618;-72
2021/05/02 06:36:06;;;;;;;53.37;26.93;;;;;;;6.21;100.00;100175.31;4980433;28;20591;-74
2021/05/02 06:38:32;;;;;;;48.67;24.90;;;;;;;6.18;100.00;100167.59;4982454;28;20224;-74
2021/05/02 06:40:59;;;;;;;41.93;23.47;;;;;;;6.20;100.00;100163.22;4987084;28;20301;-73
2021/05/02 06:43:25;;;;;;;47.43;24.80;;;;;;;6.19;100.00;100167.56;4984065;28;20228;-75
2021/05/02 06:45:51;;;;;;;44.57;22.27;;;;;;;6.17;100.00;100165.84;4978258;28;20266;-75
2021/05/02 06:48:18;;;;;;;47.50;24.37;;;;;;;6.17;100.00;100160.69;4983152;28;20252;-74
2021/05/02 06:50:44;;;;;;;43.70;22.33;;;;;;;6.16;100.00;100169.34;4980459;28;20190;-74
2021/05/02 06:53:11;;;;;;;41.50;23.30;;;;;;;6.15;100.00;100170.22;4986252;28;20701;-75
2021/05/02 06:55:37;;;;;;;43.43;22.03;;;;;;;6.19;100.00;100161.50;4986549;28;20209;-75
2021/05/02 06:58:03;;;;;;;45.53;23.10;;;;;;;6.20;100.00;100169.25;4984046;28;20193;-73
2021/05/02 07:00:29;;;;;;;42.60;21.63;;;;;;;6.22;100.00;100167.50;4984122;28;20228;-73
2021/05/02 07:02:56;;;;;;;41.80;20.40;;;;;;;6.20;100.00;100161.50;4986101;28;20206;-74
2021/05/02 07:05:23;;;;;;;37.93;19.57;;;;;;;6.20;100.00;100161.50;4980820;28;20234;-74
2021/05/02 07:07:52;;;;;;;35.27;19.00;;;;;;;6.20;100.00;100158.06;4985282;28;20226;-74
2021/05/02 07:10:18;;;;;;;41.30;21.00;;;;;;;6.25;100.00;100170.03;4981661;28;20621;-74
2021/05/02 07:12:44;;;;;;;40.97;21.70;;;;;;;6.25;100.00;100166.59;4981698;28;20288;-75
2021/05/02 07:15:11;;;;;;;36.33;20.47;;;;;;;6.26;100.00;100163.13;4980699;28;20737;-75
2021/05/02 07:17:37;;;;;;;38.50;19.93;;;;;;;6.27;100.00;100170.03;4977250;28;20218;-76
2021/05/02 07:20:06;;;;;;;38.60;19.40;;;;;;;6.25;100.00;100171.78;4982945;28;20832;-74
2021/05/02 07:22:34;;;;;;;36.43;19.53;;;;;;;6.28;100.00;100169.16;4981788;28;20213;-76
2021/05/02 07:25:00;;;;;;;34.47;17.97;;;;;;;6.29;100.00;100165.66;4985586;28;20189;-75
2021/05/02 07:27:26;;;;;;;36.20;18.67;;;;;;;6.31;100.00;100170.81;4983454;28;20714;-75
2021/05/02 07:29:52;;;;;;;33.17;18.13;;;;;;;6.34;100.00;100163.88;4981273;28;20202;-76
2021/05/02 07:32:18;;;;;;;34.60;19.40;;;;;;;6.34;100.00;100173.38;4984082;28;20251;-74
2021/05/02 07:34:44;;;;;;;35.00;17.90;;;;;;;6.31;100.00;100174.25;4983634;28;20769;-75
2021/05/02 07:37:10;;;;;;;33.33;17.47;;;;;;;6.36;100.00;100177.63;4983474;28;20248;-74
2021/05/02 07:39:39;;;;;;;31.87;17.73;;;;;;;6.42;100.00;100164.59;4962818;28;20214;-75
2021/05/02 07:42:06;;;;;;;32.13;16.97;;;;;;;6.46;100.00;100180.09;4975492;28;20221;-75
2021/05/02 07:44:32;;;;;;;32.30;18.03;;;;;;;6.48;100.00;100170.56;4977709;28;20590;-76
2021/05/02 07:46:58;;;;;;;36.90;19.17;;;;;;;6.57;100.00;100170.41;4985608;28;20279;-75
2021/05/02 07:49:24;;;;;;;31.13;17.40;;;;;;;6.51;100.00;100175.66;4981801;28;20197;-75
2021/05/02 07:51:50;;;;;;;28.87;17.63;;;;;;;6.58;100.00;100177.31;4978205;28;20312;-76
2021/05/02 07:54:15;;;;;;;28.60;16.67;;;;;;;6.58;100.00;100185.06;4978939;28;20198;-76
2021/05/02 07:56:42;;;;;;;27.50;16.30;;;;;;;6.59;100.00;100177.25;4981085;28;20221;-76
2021/05/02 07:59:08;;;;;;;31.17;17.47;;;;;;;6.74;100.00;100175.31;4980820;28;20221;-75
2021/05/02 08:01:34;;;;;;;27.43;16.17;;;;;;;6.68;100.00;100178.00;4985365;28;20217;-75
2021/05/02 08:04:00;;;;;;;31.00;16.57;;;;;;;6.74;100.00;100178.75;4981381;28;20228;-76
2021/05/02 08:06:26;;;;;;;27.60;15.57;;;;;;;6.74;100.00;100181.34;4983433;28;20316;-75
2021/05/02 08:08:53;;;;;;;27.13;15.40;;;;;;;6.67;100.00;100174.56;4981644;28;20221;-76
2021/05/02 08:11:19;;;;;;;24.53;15.37;;;;;;;6.71;100.00;100180.53;4983246;28;20198;-75
2021/05/02 08:13:46;;;;;;;28.63;16.13;;;;;;;6.79;100.00;100181.25;4984837;28;20859;-74
2021/05/02 08:16:12;;;;;;;25.93;14.93;;;;;;;6.72;100.00;100182.22;4967596;28;547440;-76
2021/05/02 08:18:38;;;;;;;22.83;14.33;;;;;;;6.68;100.00;100183.16;4988214;28;20201;-76
2021/05/02 08:21:07;;;;;;;23.47;14.33;;;;;;;6.63;100.00;100185.81;4990879;28;20551;-76
2021/05/02 08:23:33;;;;;;;23.87;13.73;;;;;;;6.69;100.00;100187.47;4988973;28;20197;-76
2021/05/02 08:25:59;;;;;;;22.60;14.23;;;;;;;6.63;100.00;100193.59;4987633;28;20217;-76
2021/05/02 08:28:25;;;;;;;24.50;14.07;;;;;;;6.69;100.00;100195.25;4986722;28;20288;-76
2021/05/02 08:30:52;;;;;;;23.60;14.07;;;;;;;6.76;100.00;100196.84;4986977;28;20614;-76
2021/05/02 08:33:18;;;;;;;22.83;14.00;;;;;;;6.77;100.00;100202.00;4982185;28;20206;-75
2021/05/02 08:35:47;;;;;;;21.37;13.47;;;;;;;6.78;100.00;100200.28;4987481;28;20208;-74
2021/05/02 08:38:13;;;;;;;23.90;15.53;;;;;;;6.79;100.00;100205.44;4970992;28;20265;-76
2021/05/02 08:40:39;;;;;;;18.60;12.47;;;;;;;6.72;100.00;100202.94;4983929;28;20247;-75
2021/05/02 08:43:07;;;;;;;20.67;12.47;;;;;;;6.72;100.00;100211.59;4985716;28;20220;-76
2021/05/02 08:45:35;;;;;;;20.07;12.33;;;;;;;6.69;100.00;100206.47;4983180;28;20205;-75
2021/05/02 08:48:03;;;;;;;19.47;12.40;;;;;;;6.75;100.00;100205.50;4990620;28;20197;-75
2021/05/02 08:50:29;;;;;;;22.90;11.93;;;;;;;6.78;100.00;100213.22;4981158;28;20193;-74
2021/05/02 08:52:55;;;;;;;20.17;13.13;;;;;;;6.82;100.00;100207.09;4988434;28;20251;-76
2021/05/02 08:55:21;;;;;;;20.07;12.77;;;;;;;6.88;100.00;100209.59;4986622;28;20197;-76
2021/05/02 08:57:47;;;;;;;19.43;12.47;;;;;;;6.86;100.00;100208.78;4980890;28;20216;-76
2021/05/02 09:00:14;;;;;;;19.00;13.03;;;;;;;6.92;100.00;100206.06;4987758;28;20621;-75
2021/05/02 09:02:52;;;;;;;20.77;12.93;;;;;;;6.90;100.00;100209.56;4987197;28;20207;-74
2021/05/02 09:05:18;;;;;;;20.60;13.13;;;;;;;6.88;100.00;100213.91;4978862;28;20736;-75
2021/05/02 09:07:46;;;;;;;21.27;11.97;;;;;;;6.89;100.00;100216.47;4976481;28;20214;-75
2021/05/02 09:10:13;;;;;;;19.30;12.27;;;;;;;6.87;100.00;100214.81;4978861;28;20229;-76
2021/05/02 09:12:43;;;;;;;19.47;11.90;;;;;;;6.86;100.00;100210.50;4981841;28;20193;-76
2021/05/02 09:15:17;;;;;;;21.10;12.27;;;;;;;6.83;100.00;100217.44;4984114;28;20227;-75
2021/05/02 09:17:51;;;;;;;19.10;12.67;;;;;;;6.75;100.00;100224.47;4983750;28;20387;-76
2021/05/02 09:20:48;;;;;;;18.77;11.50;;;;;;;6.74;100.00;100217.59;4980795;28;20249;-76
2021/05/02 09:23:15;;;;;;;19.03;11.77;;;;;;;6.76;100.00;100223.63;4984127;28;20237;-75
2021/05/02 09:25:49;;;;;;;21.80;13.03;;;;;;;6.86;100.00;100219.16;4980949;28;20276;-76
2021/05/02 09:28:16;;;;;;;19.90;12.03;;;;;;;6.99;100.00;100220.63;4979335;28;20240;-76
2021/05/02 09:30:42;;;;;;;20.83;12.53;;;;;;;7.08;100.00;100222.19;4982735;28;20194;-75
2021/05/02 09:33:08;;;;;;;21.20;12.87;;;;;;;7.00;100.00;100218.88;4977205;28;20202;-76
2021/05/02 09:35:35;;;;;;;19.50;12.33;;;;;;;7.10;100.00;100220.41;4979594;28;20203;-75
2021/05/02 09:38:10;;;;;;;18.80;12.30;;;;;;;7.11;100.00;100232.50;4975580;28;20202;-75
2021/05/02 09:40:51;;;;;;;19.27;12.20;;;;;;;7.15;100.00;100225.53;4985512;28;20221;-75
2021/05/02 09:43:35;;;;;;;19.83;12.73;;;;;;;7.12;100.00;100230.78;4984719;28;20292;-76
2021/05/02 09:46:23;;;;;;;18.90;11.63;;;;;;;7.18;100.00;100236.69;4983790;28;20892;-76
2021/05/02 09:48:49;;;;;;;16.20;10.90;;;;;;;7.17;100.00;100236.72;4985535;28;20191;-75
2021/05/02 09:51:15;;;;;;;18.80;11.03;;;;;;;7.26;100.00;100230.53;4984678;28;20201;-76
2021/05/02 09:54:10;;;;;;;18.90;11.90;;;;;;;7.26;100.00;100240.88;4980761;28;20714;-76
2021/05/02 09:56:40;;;;;;;15.30;10.37;;;;;;;7.31;100.00;100244.25;4978396;28;20348;-76
2021/05/02 09:59:19;;;;;;;16.87;10.90;;;;;;;7.36;100.00;100245.03;4973760;28;20213;-76
2021/05/02 10:02:12;;;;;;;17.13;11.27;;;;;;;7.46;100.00;100245.69;4976265;28;20228;-75
2021/05/02 10:04:43;;;;;;;15.90;10.30;;;;;;;7.39;100.00;100247.56;4980104;28;20194;-74
2021/05/02 10:07:09;;;;;;;13.60;8.67;;;;;;;7.30;100.00;100248.59;4983258;28;20217;-76
2021/05/02 10:09:37;;;;;;;12.23;8.77;;;;;;;7.28;100.00;100260.75;4972353;28;20209;-75
2021/05/02 10:12:04;;;;;;;13.17;9.37;;;;;;;7.28;100.00;100265.94;4983287;28;20674;-74
2021/05/02 10:14:30;;;;;;;14.87;9.40;;;;;;;7.35;100.00;100262.34;4965945;28;20204;-76
2021/05/02 10:16:56;;;;;;;15.30;9.50;;;;;;;7.41;100.00;100261.34;4977368;28;20316;-76
2021/05/02 10:19:26;;;;;;;15.93;9.87;;;;;;;7.35;100.00;100264.94;4976752;28;20204;-73
2021/05/02 10:21:52;;;;;;;14.70;10.07;;;;;;;7.43;100.00;100263.94;4979221;28;20228;-76
2021/05/02 10:24:18;;;;;;;15.60;9.50;;;;;;;7.43;100.00;100267.38;4981344;28;20202;-75
2021/05/02 10:26:45;;;;;;;16.27;10.43;;;;;;;7.52;100.00;100268.94;4985883;28;20221;-75
2021/05/02 10:29:11;;;;;;;13.80;9.47;;;;;;;7.61;100.00;100268.75;4985508;28;20655;-76
2021/05/02 10:31:41;;;;;;;14.47;9.17;;;;;;;7.62;100.00;100270.47;4980169;28;20201;-77
2021/05/02 10:34:29;;;;;;;18.37;11.23;;;;;;;7.70;100.00;100273.75;4981375;28;20829;-76
2021/05/02 10:37:33;;;;;;;12.00;8.40;;;;;;;7.71;100.00;100277.22;4985131;28;20690;-76
2021/05/02 10:40:02;;;;;;;12.83;9.23;;;;;;;7.75;100.00;100281.44;4979527;28;20250;-76
2021/05/02 10:42:38;;;;;;;13.07;9.17;;;;;;;7.86;100.00;100278.63;4980517;28;20585;-75
2021/05/02 10:45:43;;;;;;;15.33;9.90;;;;;;;7.91;100.00;100284.59;4978710;28;20198;-76
2021/05/02 10:48:35;;;;;;;16.03;10.47;;;;;;;7.90;100.00;100278.56;4981603;28;20208;-76
2021/05/02 10:51:02;;;;;;;15.50;10.70;;;;;;;7.89;100.00;100283.78;4981163;28;20643;-76
2021/05/02 10:53:28;;;;;;;14.07;9.77;;;;;;;7.73;100.00;100293.59;4973662;28;20216;-76
2021/05/02 10:55:58;;;;;;;12.30;9.07;;;;;;;7.75;100.00;100295.28;4977949;28;20312;-76
2021/05/02 11:05:47;;;;;;;13.97;9.43;;;;;;;8.05;100.00;100302.47;4978084;28;20196;-73
2021/05/02 11:08:47;;;;;;;13.47;8.23;;;;;;;8.12;100.00;100304.91;4977383;28;20263;-76
2021/05/02 11:11:35;;;;;;;13.60;8.70;;;;;;;8.23;100.00;100316.81;4975116;28;20292;-74
2021/05/02 11:14:36;;;;;;;10.43;8.30;;;;;;;8.33;100.00;100307.94;4979074;28;20260;-75
2021/05/02 11:17:20;;;;;;;11.43;8.10;;;;;;;8.27;100.00;100314.13;4977260;28;20267;-76
2021/05/02 11:19:47;;;;;;;9.57;7.30;;;;;;;8.32;100.00;100324.44;4978858;28;20328;-75
2021/05/02 11:22:15;;;;;;;9.70;7.60;;;;;;;8.24;100.00;100319.38;4982635;28;20593;-75
2021/05/02 11:24:56;;;;;;;11.43;8.37;;;;;;;8.20;100.00;100325.53;4979973;28;20197;-76
2021/05/02 11:27:50;;;;;;;11.93;9.10;;;;;;;8.33;100.00;100336.50;4983993;28;20866;-76